createdAt,value
2018-12-22T00:01:03.190Z,939.52
2018-12-22T00:02:11.345Z,939.49
2018-12-22T00:03:19.305Z,939.40
2018-12-22T00:04:27.358Z,939.46
2018-12-22T00:05:35.388Z,939.48
2018-12-22T00:06:43.498Z,939.49
2018-12-22T00:07:51.615Z,939.47
2018-12-22T00:08:59.588Z,939.48
2018-12-22T00:10:07.652Z,939.47
2018-12-22T00:11:15.694Z,939.53
2018-12-22T00:12:23.770Z,939.55
2018-12-22T00:13:31.926Z,939.51
2018-12-22T00:14:39.882Z,939.46
2018-12-22T00:15:47.944Z,939.51
2018-12-22T00:16:56.001Z,939.47
2018-12-22T00:18:04.055Z,939.52
2018-12-22T00:19:12.236Z,939.48
2018-12-22T00:20:20.179Z,939.50
2018-12-22T00:21:28.238Z,939.50
2018-12-22T00:22:36.297Z,939.51
2018-12-22T00:23:44.359Z,939.50
2018-12-22T00:24:52.506Z,939.51
2018-12-22T00:26:00.487Z,939.55
2018-12-22T00:27:08.519Z,939.53
2018-12-22T00:28:22.072Z,939.56
2018-12-22T00:29:24.730Z,939.55
2018-12-22T00:30:32.799Z,939.50
2018-12-22T00:31:40.762Z,939.56
2018-12-22T00:32:48.815Z,939.47
2018-12-22T00:33:56.877Z,939.44
2018-12-22T00:35:04.937Z,939.47
2018-12-22T00:36:13.096Z,939.45
2018-12-22T00:37:21.058Z,939.40
2018-12-22T00:38:29.116Z,939.41
2018-12-22T00:39:37.181Z,939.38
2018-12-22T00:40:45.214Z,939.36
2018-12-22T00:41:53.375Z,939.48
2018-12-22T00:43:01.339Z,939.44
2018-12-22T00:44:09.403Z,939.45
2018-12-22T00:45:17.561Z,939.44
2018-12-22T00:46:25.606Z,939.41
2018-12-22T00:47:33.594Z,939.45
2018-12-22T00:48:41.626Z,939.39
2018-12-22T00:49:49.698Z,939.40
2018-12-22T00:50:57.818Z,939.48
2018-12-22T00:52:05.904Z,939.49
2018-12-22T00:53:13.865Z,939.43
2018-12-22T00:54:21.928Z,939.51
2018-12-22T00:55:29.994Z,939.53
2018-12-22T00:56:38.029Z,939.49
2018-12-22T00:57:46.195Z,939.44
2018-12-22T00:58:54.160Z,939.45
2018-12-22T01:00:02.233Z,939.44
2018-12-22T01:01:10.391Z,939.46
2018-12-22T01:02:18.353Z,939.40
2018-12-22T01:03:26.506Z,939.41
2018-12-22T01:04:34.464Z,939.46
2018-12-22T01:05:42.513Z,939.49
2018-12-22T01:06:52.635Z,939.46
2018-12-22T01:07:58.729Z,939.48
2018-12-22T01:09:06.693Z,939.46
2018-12-22T01:10:14.741Z,939.51
2018-12-22T01:11:22.798Z,939.47
2018-12-22T01:12:30.974Z,939.51
2018-12-22T01:13:38.923Z,939.50
2018-12-22T01:14:46.983Z,939.47
2018-12-22T01:15:55.037Z,939.48
2018-12-22T01:17:03.223Z,939.49
2018-12-22T01:18:11.254Z,939.57
2018-12-22T01:19:19.213Z,939.52
2018-12-22T01:20:27.300Z,939.47
2018-12-22T01:21:35.306Z,939.55
2018-12-22T01:22:43.487Z,939.55
2018-12-22T01:23:51.457Z,939.57
2018-12-22T01:24:59.534Z,939.58
2018-12-22T01:26:07.580Z,939.60
2018-12-22T01:27:15.611Z,939.62
2018-12-22T01:28:23.796Z,939.65
2018-12-22T01:29:31.748Z,939.70
2018-12-22T01:30:39.815Z,939.73
2018-12-22T01:31:49.017Z,939.75
2018-12-22T01:32:56.032Z,939.70
2018-12-22T01:34:04.077Z,939.82
2018-12-22T01:35:12.042Z,939.83
2018-12-22T01:36:20.099Z,939.85
2018-12-22T01:37:28.154Z,939.85
2018-12-22T01:38:36.223Z,939.87
2018-12-22T01:39:44.356Z,939.81
2018-12-22T01:40:52.325Z,939.85
2018-12-22T01:42:00.414Z,939.84
2018-12-22T01:43:08.463Z,939.86
2018-12-22T01:44:16.504Z,939.80
2018-12-22T01:45:24.660Z,939.82
2018-12-22T01:46:32.627Z,939.82
2018-12-22T01:47:40.782Z,939.76
2018-12-22T01:48:48.734Z,939.82
2018-12-22T01:49:56.803Z,939.77
2018-12-22T01:51:04.944Z,939.84
2018-12-22T01:52:12.927Z,939.84
2018-12-22T01:53:20.981Z,939.82
2018-12-22T01:54:29.028Z,939.77
2018-12-22T01:55:37.121Z,939.82
2018-12-22T01:56:45.229Z,939.86
2018-12-22T01:57:53.211Z,939.80
2018-12-22T01:59:01.273Z,939.82
2018-12-22T02:00:09.336Z,939.87
2018-12-22T02:01:17.394Z,939.80
2018-12-22T02:02:25.522Z,939.83
2018-12-22T02:03:33.505Z,939.81
2018-12-22T02:04:41.553Z,939.84
2018-12-22T02:05:49.645Z,939.88
2018-12-22T02:06:57.686Z,939.90
2018-12-22T02:08:05.784Z,939.89
2018-12-22T02:09:13.791Z,939.83
2018-12-22T02:10:21.855Z,939.84
2018-12-22T02:11:30.080Z,939.81
2018-12-22T02:12:38.030Z,939.80
2018-12-22T02:13:46.037Z,939.80
2018-12-22T02:14:54.095Z,939.83
2018-12-22T02:16:02.136Z,939.85
2018-12-22T02:17:10.207Z,939.99
2018-12-22T02:18:18.363Z,939.91
2018-12-22T02:19:26.334Z,939.88
2018-12-22T02:20:34.385Z,939.92
2018-12-22T02:21:42.436Z,939.97
2018-12-22T02:22:50.508Z,939.88
2018-12-22T02:23:58.649Z,939.88
2018-12-22T02:25:06.624Z,939.90
2018-12-22T02:26:14.677Z,939.88
2018-12-22T02:27:22.724Z,939.88
2018-12-22T02:28:30.812Z,939.87
2018-12-22T02:29:38.948Z,939.94
2018-12-22T02:30:46.917Z,939.84
2018-12-22T02:31:54.958Z,939.82
2018-12-22T02:33:03.029Z,939.87
2018-12-22T02:34:11.180Z,939.87
2018-12-22T02:35:19.239Z,939.85
2018-12-22T02:36:27.230Z,939.91
2018-12-22T02:37:35.244Z,939.80
2018-12-22T02:38:43.316Z,939.87
2018-12-22T02:39:51.388Z,939.87
2018-12-22T02:40:59.552Z,939.84
2018-12-22T02:42:07.510Z,939.79
2018-12-22T02:43:15.547Z,939.75
2018-12-22T02:44:23.619Z,939.84
2018-12-22T02:45:31.677Z,939.76
2018-12-22T02:46:39.830Z,939.79
2018-12-22T02:47:47.795Z,939.83
2018-12-22T02:48:55.837Z,939.72
2018-12-22T02:50:04.009Z,939.78
2018-12-22T02:51:11.965Z,939.80
2018-12-22T02:52:20.121Z,939.82
2018-12-22T02:53:28.088Z,939.86
2018-12-22T02:54:36.143Z,939.71
2018-12-22T02:55:44.208Z,939.74
2018-12-22T02:56:52.263Z,939.88
2018-12-22T02:58:00.430Z,939.88
2018-12-22T02:59:08.393Z,939.78
2018-12-22T03:00:16.432Z,939.76
2018-12-22T03:01:24.501Z,939.91
2018-12-22T03:02:32.658Z,939.82
2018-12-22T03:03:40.619Z,939.86
2018-12-22T03:04:48.683Z,939.82
2018-12-22T03:05:56.832Z,939.92
2018-12-22T03:07:04.794Z,939.86
2018-12-22T03:08:12.945Z,939.85
2018-12-22T03:09:20.910Z,939.87
2018-12-22T03:10:28.982Z,939.87
2018-12-22T03:11:37.030Z,939.86
2018-12-22T03:12:45.170Z,939.88
2018-12-22T03:13:53.145Z,939.92
2018-12-22T03:15:01.206Z,939.88
2018-12-22T03:16:09.271Z,939.96
2018-12-22T03:17:17.328Z,939.92
2018-12-22T03:18:25.621Z,940.00
2018-12-22T03:19:33.436Z,939.90
2018-12-22T03:20:41.505Z,940.01
2018-12-22T03:21:49.658Z,939.98
2018-12-22T03:22:57.614Z,939.98
2018-12-22T03:24:05.760Z,940.01
2018-12-22T03:25:13.734Z,939.94
2018-12-22T03:26:21.791Z,940.00
2018-12-22T03:27:29.852Z,939.99
2018-12-22T03:28:37.908Z,940.09
2018-12-22T03:29:46.099Z,940.08
2018-12-22T03:30:54.035Z,940.12
2018-12-22T03:32:02.101Z,940.03
2018-12-22T03:33:10.152Z,940.07
2018-12-22T03:34:18.222Z,940.00
2018-12-22T03:35:26.379Z,939.97
2018-12-22T03:36:34.339Z,939.98
2018-12-22T03:37:42.446Z,939.97
2018-12-22T03:38:50.433Z,939.89
2018-12-22T03:39:58.502Z,939.95
2018-12-22T03:41:06.638Z,939.92
2018-12-22T03:42:14.603Z,939.90
2018-12-22T03:43:22.717Z,939.89
2018-12-22T03:44:30.739Z,939.87
2018-12-22T03:45:38.795Z,940.05
2018-12-22T03:46:47.294Z,940.00
2018-12-22T03:47:54.900Z,940.02
2018-12-22T03:49:02.958Z,940.12
2018-12-22T03:50:11.031Z,940.11
2018-12-22T03:51:19.073Z,940.05
2018-12-22T03:52:27.223Z,940.08
2018-12-22T03:53:35.191Z,940.11
2018-12-22T03:54:43.270Z,940.16
2018-12-22T03:55:51.326Z,940.22
2018-12-22T03:56:59.373Z,940.16
2018-12-22T03:58:07.431Z,940.15
2018-12-22T03:59:24.441Z,940.14
2018-12-22T04:00:23.561Z,940.11
2018-12-22T04:01:31.626Z,940.19
2018-12-22T04:02:39.761Z,940.18
2018-12-22T04:03:47.732Z,940.22
2018-12-22T04:04:55.784Z,940.19
2018-12-22T04:06:03.849Z,940.22
2018-12-22T04:07:11.999Z,940.22
2018-12-22T04:08:20.063Z,940.24
2018-12-22T04:09:28.021Z,940.29
2018-12-22T04:10:36.079Z,940.26
2018-12-22T04:11:44.151Z,940.22
2018-12-22T04:12:52.292Z,940.19
2018-12-22T04:14:00.241Z,940.19
2018-12-22T04:15:08.319Z,940.13
2018-12-22T04:16:16.393Z,940.17
2018-12-22T04:17:24.433Z,940.11
2018-12-22T04:18:32.495Z,940.15
2018-12-22T04:19:40.556Z,940.18
2018-12-22T04:20:48.590Z,940.16
2018-12-22T04:21:56.662Z,940.15
2018-12-22T04:23:04.840Z,940.21
2018-12-22T04:24:12.790Z,940.19
2018-12-22T04:25:20.845Z,940.05
2018-12-22T04:26:28.899Z,940.26
2018-12-22T04:27:37.062Z,940.13
2018-12-22T04:28:45.022Z,940.14
2018-12-22T04:29:53.085Z,940.30
2018-12-22T04:31:01.132Z,940.29
2018-12-22T04:32:09.197Z,940.18
2018-12-22T04:33:17.346Z,940.27
2018-12-22T04:34:25.311Z,940.32
2018-12-22T04:35:33.377Z,940.30
2018-12-22T04:36:41.434Z,940.32
2018-12-22T04:37:49.578Z,940.36
2018-12-22T04:38:57.999Z,940.32
2018-12-22T04:40:05.598Z,940.35
2018-12-22T04:41:13.678Z,940.35
2018-12-22T04:42:21.721Z,940.43
2018-12-22T04:43:29.783Z,940.32
2018-12-22T04:44:37.935Z,940.31
2018-12-22T04:45:45.902Z,940.29
2018-12-22T04:46:53.951Z,940.36
2018-12-22T04:48:02.009Z,940.40
2018-12-22T04:49:10.070Z,940.34
2018-12-22T04:50:18.228Z,940.36
2018-12-22T04:51:26.200Z,940.35
2018-12-22T04:52:34.328Z,940.35
2018-12-22T04:53:42.306Z,940.45
2018-12-22T04:54:50.353Z,940.39
2018-12-22T04:55:58.528Z,940.37
2018-12-22T04:57:06.487Z,940.44
2018-12-22T04:58:14.548Z,940.42
2018-12-22T04:59:22.608Z,940.37
2018-12-22T05:00:30.652Z,940.45
2018-12-22T05:01:38.820Z,940.42
2018-12-22T05:02:46.780Z,940.46
2018-12-22T05:03:54.836Z,940.46
2018-12-22T05:05:02.900Z,940.50
2018-12-22T05:06:10.949Z,940.50
2018-12-22T05:07:19.106Z,940.58
2018-12-22T05:08:27.176Z,940.58
2018-12-22T05:09:35.137Z,940.54
2018-12-22T05:10:43.193Z,940.55
2018-12-22T05:11:51.297Z,940.58
2018-12-22T05:12:59.414Z,940.59
2018-12-22T05:14:07.401Z,940.67
2018-12-22T05:15:15.410Z,940.65
2018-12-22T05:16:23.518Z,940.62
2018-12-22T05:17:31.640Z,940.54
2018-12-22T05:18:39.613Z,940.65
2018-12-22T05:19:47.669Z,940.60
2018-12-22T05:20:55.689Z,940.65
2018-12-22T05:22:04.432Z,940.60
2018-12-22T05:23:11.938Z,940.61
2018-12-22T05:24:19.981Z,940.59
2018-12-22T05:25:28.044Z,940.55
2018-12-22T05:26:36.007Z,940.57
2018-12-22T05:27:44.067Z,940.63
2018-12-22T05:28:52.225Z,940.56
2018-12-22T05:30:00.197Z,940.67
2018-12-22T05:31:08.254Z,940.66
2018-12-22T05:32:16.306Z,940.68
2018-12-22T05:33:24.361Z,940.70
2018-12-22T05:34:32.717Z,940.73
2018-12-22T05:35:40.484Z,940.75
2018-12-22T05:36:48.546Z,940.74
2018-12-22T05:37:56.599Z,940.64
2018-12-22T05:39:04.878Z,940.69
2018-12-22T05:40:12.804Z,940.67
2018-12-22T05:41:20.882Z,940.64
2018-12-22T05:42:28.826Z,940.64
2018-12-22T05:43:37.053Z,940.63
2018-12-22T05:44:44.946Z,940.66
2018-12-22T05:45:53.134Z,940.67
2018-12-22T05:47:01.070Z,940.58
2018-12-22T05:48:09.154Z,940.55
2018-12-22T05:49:17.189Z,940.57
2018-12-22T05:50:25.225Z,940.64
2018-12-22T05:51:33.406Z,940.63
2018-12-22T05:52:41.359Z,940.62
2018-12-22T05:53:49.432Z,940.65
2018-12-22T05:54:57.484Z,940.71
2018-12-22T05:56:05.539Z,940.72
2018-12-22T05:57:13.747Z,940.67
2018-12-22T05:58:21.658Z,940.64
2018-12-22T05:59:29.973Z,940.66
2018-12-22T06:00:37.768Z,940.64
2018-12-22T06:01:45.823Z,940.66
2018-12-22T06:02:53.983Z,940.63
2018-12-22T06:04:01.943Z,940.62
2018-12-22T06:05:10.009Z,940.66
2018-12-22T06:06:18.055Z,940.73
2018-12-22T06:07:26.131Z,940.74
2018-12-22T06:08:34.193Z,940.77
2018-12-22T06:09:42.224Z,940.78
2018-12-22T06:10:50.551Z,940.77
2018-12-22T06:11:58.340Z,940.78
2018-12-22T06:13:06.514Z,940.76
2018-12-22T06:14:14.469Z,940.84
2018-12-22T06:15:23.100Z,940.80
2018-12-22T06:16:30.607Z,940.84
2018-12-22T06:17:38.795Z,940.86
2018-12-22T06:18:46.720Z,940.95
2018-12-22T06:19:54.769Z,940.96
2018-12-22T06:21:02.834Z,940.99
2018-12-22T06:22:10.872Z,940.93
2018-12-22T06:23:19.052Z,940.88
2018-12-22T06:24:26.994Z,940.93
2018-12-22T06:25:35.460Z,940.90
2018-12-22T06:26:43.113Z,940.97
2018-12-22T06:27:51.271Z,940.98
2018-12-22T06:29:01.377Z,940.97
2018-12-22T06:30:09.214Z,941.02
2018-12-22T06:31:15.474Z,941.06
2018-12-22T06:32:23.410Z,941.02
2018-12-22T06:33:31.462Z,941.02
2018-12-22T06:34:39.618Z,941.05
2018-12-22T06:35:47.597Z,941.02
2018-12-22T06:36:55.619Z,941.01
2018-12-22T06:38:03.735Z,941.05
2018-12-22T06:39:11.815Z,941.06
2018-12-22T06:40:19.954Z,941.04
2018-12-22T06:41:27.902Z,941.02
2018-12-22T06:42:36.033Z,941.02
2018-12-22T06:43:43.987Z,940.95
2018-12-22T06:44:52.044Z,940.94
2018-12-22T06:46:00.831Z,940.98
2018-12-22T06:47:08.182Z,941.00
2018-12-22T06:48:16.844Z,941.05
2018-12-22T06:49:24.850Z,941.07
2018-12-22T06:50:34.199Z,941.14
2018-12-22T06:51:41.464Z,941.17
2018-12-22T06:52:49.057Z,941.18
2018-12-22T06:53:56.970Z,941.17
2018-12-22T06:55:05.231Z,941.20
2018-12-22T06:56:13.547Z,941.19
2018-12-22T06:57:21.168Z,941.22
2018-12-22T06:58:29.282Z,941.27
2018-12-22T06:59:37.917Z,941.28
2018-12-22T07:00:44.872Z,941.25
2018-12-22T07:01:52.935Z,941.30
2018-12-22T07:03:01.096Z,941.21
2018-12-22T07:04:09.043Z,941.20
2018-12-22T07:05:17.105Z,941.14
2018-12-22T07:06:25.688Z,941.18
2018-12-22T07:07:34.127Z,941.17
2018-12-22T07:08:41.893Z,941.10
2018-12-22T07:09:50.982Z,941.13
2018-12-22T07:10:57.965Z,941.25
2018-12-22T07:12:06.082Z,941.24
2018-12-22T07:13:13.598Z,941.32
2018-12-22T07:14:21.656Z,941.27
2018-12-22T07:15:29.657Z,941.28
2018-12-22T07:16:37.693Z,941.29
2018-12-22T07:17:45.740Z,941.34
2018-12-22T07:18:53.905Z,941.33
2018-12-22T07:20:01.866Z,941.38
2018-12-22T07:21:09.925Z,941.41
2018-12-22T07:22:17.982Z,941.52
2018-12-22T07:23:26.027Z,941.52
2018-12-22T07:24:34.839Z,941.47
2018-12-22T07:26:53.659Z,941.54
2018-12-22T07:27:58.301Z,941.58
2018-12-22T07:29:06.414Z,941.71
2018-12-22T07:30:14.509Z,941.70
2018-12-22T07:31:22.952Z,941.70
2018-12-22T07:34:48.998Z,941.73
2018-12-22T07:35:54.773Z,941.69
2018-12-22T07:37:02.743Z,941.68
2018-12-22T07:38:10.813Z,941.73
2018-12-22T07:39:18.977Z,941.66
2018-12-22T07:42:12.090Z,941.66
